Hauptseite
METAR-TAF:

METAR-TAF

Flughäfen :

Benbecula, Schottland

Benbecula Airport

Breite: 57-28N, Länge: 007-22W, Höhe: 6 m

Beobachtung

Neuester Wetterbericht von vor 38 Minuten, um 00:50 UTC
Wind 13 kt aus Süd/Südost
Temperatur 3°C
Luftfeuchtigkeit 75%
Luftdruck 1026 hPa
Sichtweite 10 km oder mehr

METAR: EGPL 250050Z AUTO 15013KT 9999 NCD 03/M01 Q1026

Zeit: 01:28 (01:28 UTC)

Prognose

Neuester Wetterbericht von vor 14 Stunden und 32 Minuten, um 10:56 UTC
Gültige Prognose vom 24 um 12 UTC bis 24 um 15 UTC
Wind 20 kt aus Süd/Südost
Sichtweite 10 km oder mehr
Aufgelockert bewölkt in der Höhe von 2000 ft
Zeitweise
vom 24 um 12 UTC bis 24 um 15 UTC
Wind 25 kt aus Süd/Südost, Böen bis zu 35 kt

TAF: EGPL 241056Z 2412/2415 16020KT 9999 SCT020 TEMPO 2412/2415 16025G35KT

Wetterbeobachtungen und Prognosen von mehr als 4000 Flughäfen (METAR und TAF Bericht).

Die verfügbaren Stationen werden durch gelbe und rote Markierungen auf der Karte dargestellt.

Führen Sie die Maus auf sie, um den Namen der Station zu sehen.

Darauf klicken, um die Beobachtung von Wetterbeobachtungen und Prognosen zu sehen.

Um die Karte zu ändern : klicken Sie auf den grünen Tasten mit einem schwarzen Kreuz Zum Vergrößern, auf den grünen Button mit einem Gedankenstrich zu verkleinern, oder auf die grünen Pfeile für benachbarte Karten.


METAR-TAF: